Pagina principale
METAR-TAF:

METAR-TAF

Aeroporti :

Nouméa / La Tontouta, Nuova Caledonia

Aeroporto di Nouméa-La Tontouta

latitudine: 22-01S, longitudine: 166-13E, altezza: 16 m

Osservazione

Il bollettino è stato emesso 20 minuti fa, alle 11:30 UTC
Vento 3 kt da sud-est
Temperature 21°C
Umidità 78%
Pressione 1015 hPa
Visibilità 10 km o più
nessuna nube inferiore a 1500 m e nessun cumulonembo

METAR: NWWW 191130Z AUTO 13003KT CAVOK 21/17 Q1015 NOSIG

Ora: 22:50 (11:50 UTC)

Previsione

Il bollettino è stato emesso 50 minuti fa, alle 11:00 UTC
Previsione valida dal 19 alle 12 UTC al 20 alle 12 UTC
Vento 2 kt da direzioni variabili
Visibilità 10 km o più
Nubi sparse ad un'altezza di 4000 ft
Evoluzione graduale
dal 19 alle 23 UTC al 20 alle 01 UTC
Vento 16 kt da sud
Evoluzione graduale
dal 20 alle 06 UTC al 20 alle 08 UTC
Vento 2 kt da direzioni variabili

TAF: NWWW 191100Z 1912/2012 VRB02KT 9999 SCT040 BECMG 1923/2001 17016KT BECMG 2006/2008 VRB02KT

Osservazioni e previsioni meteorologiche di più di 4000 aeroporti (messaggi METAR e TAF).

Le stazioni disponibili sono rappresentate dai dischi gialli e rossi sulla carta.

Puntare il mouse per vedere il nome della stazione.

Clicca sopra per visualizzare le osservazioni e previsioni meteorologiche.

Per cambiare la mappa : fare clic sui pulsanti verdi con una croce nera per ingrandire, il pulsante verde con un trattino per diminuire, o sulla freccia verde per le mappe adiacenti.


METAR-TAF: